Terminal Aerodrome Forecast
Issued by NWS

Home | Current Version | Previous Version | Text Only | Print | Product List | Glossary On
Versions: 1 2 3 4 5 6 7 8 9 10 11 12 13 14 15 16 17 18 19 20 21 22 23 24 25 26
000
FTUS42 KJAX 241120
TAFVQQ
TAF
KVQQ 241120Z 2412/2512 00000KT 2SM BR OVC003
     FM241400 03008KT P6SM SCT020
     FM241800 06012KT P6SM SCT040
     FM250300 00000KT 3SM BR OVC005
     FM250900 00000KT 1/2SM FG OVC001=

USA.gov is the U.S. government's official web portal to all federal, state and local government web resources and services.